Time;durP1;ratioP1;P1;durP2;ratioP2;P2;SDS_P1;SDS_P2;PMS_P1;PMS_P2;Temp;Humidity;BMP_temperature;BMP_pressure;BME280_temperature;BME280_humidity;BME280_pressure;Samples;Min_cycle;Max_cycle;Signal;HPM_P1;HPM_P2
2021/10/12 00:00:18;;;;;;;16.13;2.75;;;;;;;;;;5076849;28;20070;-85
2021/10/12 00:02:45;;;;;;;9.15;2.15;;;;;;;;;;5092329;28;20048;-85
2021/10/12 00:05:13;;;;;;;16.83;3.05;;;;;;;;;;5094279;28;20400;-85
2021/10/12 00:07:47;;;;;;;6.57;2.03;;;;;;;;;;5076182;28;20056;-85
2021/10/12 00:10:21;;;;;;;13.60;2.83;;;;;;;;;;5095593;28;20145;-85
2021/10/12 00:12:54;;;;;;;16.23;2.75;;;;;;;;;;5078650;28;20078;-85
2021/10/12 00:15:25;;;;;;;16.38;3.80;;;;;;;;;;5094914;28;20044;-84
2021/10/12 00:17:55;;;;;;;10.32;2.42;;;;;;;;;;5078420;28;20125;-84
2021/10/12 00:20:27;;;;;;;7.32;2.05;;;;;;;;;;5079132;28;20106;-85
2021/10/12 00:22:57;;;;;;;11.63;2.50;;;;;;;;;;5073097;28;20072;-85
2021/10/12 00:25:33;;;;;;;;;;;;;;;;;;5077407;28;20129;-86
2021/10/12 00:28:11;;;;;;;5.70;2.85;;;;;;;;;;5076090;28;19920;-85
2021/10/12 00:30:38;;;;;;;9.75;2.70;;;;;;;;;;5076078;28;20075;-85
2021/10/12 00:33:05;;;;;;;5.78;2.00;;;;;;;;;;5072673;28;20401;-85
2021/10/12 00:35:32;;;;;;;15.70;2.47;;;;;;;;;;5077659;28;20052;-85
2021/10/12 00:38:05;;;;;;;11.98;2.28;;;;;;;;;;5075975;28;20067;-85
2021/10/12 00:40:46;;;;;;;9.82;2.08;;;;;;;;;;5079502;28;20059;-85
2021/10/12 00:43:14;;;;;;;16.63;2.40;;;;;;;;;;5078171;28;20067;-85
2021/10/12 00:45:46;;;;;;;10.93;2.17;;;;;;;;;;5076345;28;20125;-84
2021/10/12 00:48:12;;;;;;;13.43;2.40;;;;;;;;;;5077023;28;20044;-85
2021/10/12 00:50:39;;;;;;;12.43;2.17;;;;;;;;;;5076456;28;20071;-84
2021/10/12 00:53:06;;;;;;;10.90;2.10;;;;;;;;;;5077438;28;20075;-85
2021/10/12 00:55:38;;;;;;;15.70;2.65;;;;;;;;;;5081096;28;20068;-85
2021/10/12 00:58:09;;;;;;;6.13;2.00;;;;;;;;;;5094135;28;20067;-86
2021/10/12 01:00:39;;;;;;;13.77;1.88;;;;;;;;;;5088980;28;20379;-84
2021/10/12 01:03:06;;;;;;;14.43;2.20;;;;;;;;;;5079609;28;20399;-85
2021/10/12 01:05:37;;;;;;;12.50;1.80;;;;;;;;;;5078183;28;20447;-85
2021/10/12 01:08:03;;;;;;;8.63;1.83;;;;;;;;;;5077626;28;20076;-84
2021/10/12 01:10:30;;;;;;;9.27;2.20;;;;;;;;;;5077282;28;20263;-84
2021/10/12 01:13:33;;;;;;;10.88;2.20;;;;;;;;;;5077659;28;20219;-85
2021/10/12 01:16:44;;;;;;;8.05;1.63;;;;;;;;;;5015992;28;20136;-84
2021/10/12 01:19:25;;;;;;;11.30;2.25;;;;;;;;;;5066653;28;20060;-84
2021/10/12 01:22:04;;;;;;;9.63;1.98;;;;;;;;;;5070681;28;20057;-84
2021/10/12 01:24:47;;;;;;;8.57;2.05;;;;;;;;;;5087349;28;20082;-84
2021/10/12 01:27:22;;;;;;;11.32;2.03;;;;;;;;;;5076011;28;20068;-84
2021/10/12 01:30:29;;;;;;;12.82;1.88;;;;;;;;;;5054469;28;20044;-84
2021/10/12 01:36:20;;;;;;;7.72;1.63;;;;;;;;;;5082428;28;20067;-85
2021/10/12 01:39:18;;;;;;;12.93;1.83;;;;;;;;;;5094194;28;20059;-86
2021/10/12 01:42:25;;;;;;;13.00;2.47;;;;;;;;;;5061135;28;20200;-86
2021/10/12 01:45:14;;;;;;;10.32;2.03;;;;;;;;;;5062366;28;20071;-86
2021/10/12 01:47:50;;;;;;;7.53;1.90;;;;;;;;;;5075524;28;20071;-86
2021/10/12 01:50:32;;;;;;;5.40;1.73;;;;;;;;;;5043523;28;20045;-85
2021/10/12 01:53:05;;;;;;;9.73;1.58;;;;;;;;;;5041537;28;20140;-85
2021/10/12 01:55:49;;;;;;;15.95;3.00;;;;;;;;;;5057642;28;20504;-85
2021/10/12 01:58:23;;;;;;;9.60;1.55;;;;;;;;;;5042870;28;20056;-85
2021/10/12 02:00:50;;;;;;;6.35;1.83;;;;;;;;;;5056326;28;20045;-85
2021/10/12 02:03:19;;;;;;;16.20;1.80;;;;;;;;;;5056425;28;20063;-84
2021/10/12 02:05:46;;;;;;;15.05;2.10;;;;;;;;;;5039887;28;20053;-85
2021/10/12 02:08:13;;;;;;;13.50;2.25;;;;;;;;;;5039721;28;20056;-85
2021/10/12 02:10:54;;;;;;;7.05;1.90;;;;;;;;;;5039872;28;20309;-85
2021/10/12 02:13:25;;;;;;;7.00;1.55;;;;;;;;;;5056356;28;20052;-85
2021/10/12 02:15:59;;;;;;;17.20;2.15;;;;;;;;;;5055978;28;20044;-85
2021/10/12 02:18:27;;;;;;;19.88;2.20;;;;;;;;;;5039357;28;20061;-85
2021/10/12 02:20:54;;;;;;;14.82;2.20;;;;;;;;;;5045843;28;20109;-85
2021/10/12 02:23:21;;;;;;;12.60;2.03;;;;;;;;;;5068244;28;20060;-85
2021/10/12 02:25:49;;;;;;;12.27;1.77;;;;;;;;;;5064393;28;20055;-85
2021/10/12 02:28:15;;;;;;;9.95;2.28;;;;;;;;;;5041558;28;20045;-85
2021/10/12 02:30:42;;;;;;;5.53;1.65;;;;;;;;;;5070787;28;20096;-84
2021/10/12 02:33:12;;;;;;;12.50;1.73;;;;;;;;;;5057463;28;20052;-84
2021/10/12 02:35:39;;;;;;;8.63;2.28;;;;;;;;;;5077262;28;20045;-84
2021/10/12 02:38:08;;;;;;;10.70;2.13;;;;;;;;;;5065704;28;20428;-84
2021/10/12 02:40:35;;;;;;;7.15;1.73;;;;;;;;;;5055111;28;20060;-84
2021/10/12 02:43:02;;;;;;;10.38;2.40;;;;;;;;;;5056332;28;20263;-84
2021/10/12 02:45:32;;;;;;;16.08;2.30;;;;;;;;;;5056856;28;20398;-84
2021/10/12 02:47:58;;;;;;;13.55;1.80;;;;;;;;;;5055235;28;20059;-84
2021/10/12 02:50:28;;;;;;;12.13;1.77;;;;;;;;;;5067927;28;20057;-84
2021/10/12 02:52:58;;;;;;;11.02;1.60;;;;;;;;;;5060986;28;20062;-84
2021/10/12 02:55:25;;;;;;;20.30;2.67;;;;;;;;;;5086180;28;20112;-84
2021/10/12 02:57:52;;;;;;;13.10;2.17;;;;;;;;;;5092719;28;20076;-85
2021/10/12 03:00:21;;;;;;;7.03;1.67;;;;;;;;;;5092082;28;20064;-84
2021/10/12 03:02:48;;;;;;;10.27;1.83;;;;;;;;;;5093248;28;20037;-84
2021/10/12 03:05:15;;;;;;;11.40;2.30;;;;;;;;;;5094308;28;20053;-83
2021/10/12 03:07:42;;;;;;;10.40;1.90;;;;;;;;;;5089715;28;20543;-83
2021/10/12 03:10:11;;;;;;;9.00;1.70;;;;;;;;;;5085824;28;20150;-83
2021/10/12 03:12:40;;;;;;;10.55;1.63;;;;;;;;;;5082193;28;20059;-83
2021/10/12 03:15:07;;;;;;;22.15;2.42;;;;;;;;;;5074189;28;20040;-83
2021/10/12 03:17:44;;;;;;;8.35;1.38;;;;;;;;;;5073177;28;20052;-84
2021/10/12 03:20:40;;;;;;;13.18;1.90;;;;;;;;;;5070810;28;20131;-85
2021/10/12 03:23:24;;;;;;;11.32;2.22;;;;;;;;;;5050004;28;20122;-88
2021/10/12 03:26:07;;;;;;;9.02;2.35;;;;;;;;;;5059683;28;20143;-89
2021/10/12 03:28:35;;;;;;;12.38;2.13;;;;;;;;;;5075611;28;20048;-89
2021/10/12 03:31:02;;;;;;;9.25;1.67;;;;;;;;;;5056779;28;20109;-86
2021/10/12 03:33:29;;;;;;;12.18;1.60;;;;;;;;;;5094822;28;20051;-89
2021/10/12 03:36:13;;;;;;;13.63;2.05;;;;;;;;;;5096894;28;20048;-89
2021/10/12 03:38:40;;;;;;;10.85;1.73;;;;;;;;;;5076682;28;20068;-87
2021/10/12 03:41:07;;;;;;;7.43;2.03;;;;;;;;;;5092792;28;20105;-88
2021/10/12 03:43:33;;;;;;;7.90;1.90;;;;;;;;;;5058663;28;20045;-88
2021/10/12 03:46:03;;;;;;;6.63;1.95;;;;;;;;;;5059249;28;20052;-88
2021/10/12 03:48:30;;;;;;;10.65;2.55;;;;;;;;;;5057958;28;20112;-87
2021/10/12 03:50:57;;;;;;;11.63;2.28;;;;;;;;;;5076111;28;20186;-87
2021/10/12 03:53:23;;;;;;;16.10;3.53;;;;;;;;;;5059401;28;20075;-88
2021/10/12 03:55:51;;;;;;;12.05;3.35;;;;;;;;;;5059494;28;20221;-87
2021/10/12 03:58:17;;;;;;;14.82;3.88;;;;;;;;;;5057966;28;20156;-88
2021/10/12 04:00:44;;;;;;;6.25;4.15;;;;;;;;;;5081453;28;20059;-87
2021/10/12 04:03:11;;;;;;;7.20;3.70;;;;;;;;;;5073405;28;20056;-87
2021/10/12 04:05:38;;;;;;;16.15;5.68;;;;;;;;;;5084337;28;20173;-86
2021/10/12 04:08:05;;;;;;;14.65;5.28;;;;;;;;;;5072512;28;20048;-86
2021/10/12 04:10:32;;;;;;;15.05;5.55;;;;;;;;;;5073657;28;20244;-87
2021/10/12 04:13:04;;;;;;;10.95;3.85;;;;;;;;;;5073943;28;20108;-87
2021/10/12 04:16:04;;;;;;;9.95;3.30;;;;;;;;;;5081109;28;20076;-90
2021/10/12 04:18:31;;;;;;;10.27;3.05;;;;;;;;;;5039072;28;20168;-87
2021/10/12 04:20:58;;;;;;;10.10;2.42;;;;;;;;;;5076247;28;20052;-88
2021/10/12 04:23:25;;;;;;;11.20;2.08;;;;;;;;;;5059646;28;20047;-87
2021/10/12 04:25:52;;;;;;;10.02;1.60;;;;;;;;;;5060731;28;20052;-88
2021/10/12 04:28:19;;;;;;;8.20;1.80;;;;;;;;;;5064271;28;20139;-88
2021/10/12 04:30:46;;;;;;;8.43;1.27;;;;;;;;;;5075676;28;20044;-89
2021/10/12 04:33:14;;;;;;;6.32;1.20;;;;;;;;;;5076403;28;20405;-87
2021/10/12 04:35:41;;;;;;;8.45;0.90;;;;;;;;;;5059047;28;20122;-86
2021/10/12 04:38:11;;;;;;;2.42;0.80;;;;;;;;;;5059765;28;20079;-87
2021/10/12 04:40:42;;;;;;;1.88;0.50;;;;;;;;;;5060870;28;20068;-87
2021/10/12 04:43:09;;;;;;;3.90;0.65;;;;;;;;;;5077367;28;20048;-88
2021/10/12 04:45:40;;;;;;;6.13;0.70;;;;;;;;;;5058770;28;20056;-87
2021/10/12 04:48:07;;;;;;;2.63;0.47;;;;;;;;;;5056263;28;20117;-86
2021/10/12 04:50:34;;;;;;;3.13;0.40;;;;;;;;;;5086705;28;20055;-86
2021/10/12 04:53:06;;;;;;;3.08;0.68;;;;;;;;;;5092075;28;20051;-86
2021/10/12 04:55:43;;;;;;;3.42;0.75;;;;;;;;;;5087975;28;20111;-87
2021/10/12 04:58:10;;;;;;;2.10;0.57;;;;;;;;;;5077999;28;20048;-86
2021/10/12 05:00:40;;;;;;;2.25;0.40;;;;;;;;;;5059827;28;20106;-86
2021/10/12 05:03:09;;;;;;;3.75;0.47;;;;;;;;;;5087680;28;20067;-86
2021/10/12 05:05:40;;;;;;;3.80;0.50;;;;;;;;;;5087107;28;20363;-86
2021/10/12 05:08:07;;;;;;;1.70;0.30;;;;;;;;;;5081249;28;20052;-87
2021/10/12 05:10:36;;;;;;;0.75;0.22;;;;;;;;;;5057703;28;20139;-87
2021/10/12 05:13:08;;;;;;;1.38;0.40;;;;;;;;;;5077157;28;20114;-87
2021/10/12 05:15:36;;;;;;;2.72;0.50;;;;;;;;;;5091481;28;20097;-87
2021/10/12 05:18:10;;;;;;;5.22;0.63;;;;;;;;;;5077503;28;20059;-87
2021/10/12 05:20:43;;;;;;;2.53;0.85;;;;;;;;;;5075698;28;20048;-87
2021/10/12 05:23:10;;;;;;;4.25;1.05;;;;;;;;;;5076192;28;20154;-87
2021/10/12 05:25:37;;;;;;;2.67;0.60;;;;;;;;;;5053561;28;20337;-87
2021/10/12 05:28:16;;;;;;;2.03;0.60;;;;;;;;;;5078745;28;20063;-86
2021/10/12 05:30:43;;;;;;;2.00;0.60;;;;;;;;;;5066319;28;20065;-86
2021/10/12 05:33:14;;;;;;;2.20;0.40;;;;;;;;;;5076853;28;20087;-87
2021/10/12 05:35:41;;;;;;;4.20;0.40;;;;;;;;;;5080735;28;20054;-86
2021/10/12 05:38:10;;;;;;;2.47;0.65;;;;;;;;;;5096982;28;20070;-87
2021/10/12 05:40:37;;;;;;;1.90;0.47;;;;;;;;;;5074937;28;20290;-88
2021/10/12 05:43:08;;;;;;;2.40;0.47;;;;;;;;;;5058434;28;20436;-86
2021/10/12 05:45:49;;;;;;;4.50;0.60;;;;;;;;;;5078994;28;20052;-87
2021/10/12 05:48:19;;;;;;;11.07;0.82;;;;;;;;;;5051798;28;20049;-87
2021/10/12 05:50:47;;;;;;;1.52;0.52;;;;;;;;;;5068497;28;20040;-86
2021/10/12 06:00:56;;;;;;;2.05;0.70;;;;;;;;;;5089314;28;20083;-88
2021/10/12 06:03:26;;;;;;;5.90;0.70;;;;;;;;;;5088465;28;20096;-88
2021/10/12 06:05:53;;;;;;;5.18;0.70;;;;;;;;;;5086004;28;20052;-87
2021/10/12 06:08:20;;;;;;;3.10;0.70;;;;;;;;;;5087691;28;20594;-87
2021/10/12 06:10:48;;;;;;;5.53;0.70;;;;;;;;;;5083249;28;20124;-86
2021/10/12 06:13:18;;;;;;;6.40;0.73;;;;;;;;;;5052432;28;20485;-87
2021/10/12 06:15:49;;;;;;;4.07;1.25;;;;;;;;;;5070065;28;20117;-87
2021/10/12 06:18:20;;;;;;;7.60;0.70;;;;;;;;;;5076394;28;20075;-87
2021/10/12 06:20:47;;;;;;;5.07;0.90;;;;;;;;;;5080309;28;20069;-86
2021/10/12 06:23:17;;;;;;;5.60;1.33;;;;;;;;;;5052605;28;20057;-86
2021/10/12 06:25:47;;;;;;;2.90;0.98;;;;;;;;;;5063469;28;20052;-87
2021/10/12 06:28:15;;;;;;;5.60;1.27;;;;;;;;;;5078795;28;20072;-87
2021/10/12 06:30:43;;;;;;;3.55;1.25;;;;;;;;;;5049290;28;20048;-87
2021/10/12 06:33:13;;;;;;;3.90;1.25;;;;;;;;;;5067702;28;20158;-88
2021/10/12 06:35:57;;;;;;;4.22;0.90;;;;;;;;;;5053189;28;20118;-84
2021/10/12 06:38:30;;;;;;;5.75;1.40;;;;;;;;;;5050149;28;20048;-86
2021/10/12 06:41:01;;;;;;;2.75;1.35;;;;;;;;;;5063360;28;20052;-86
2021/10/12 06:43:33;;;;;;;6.85;1.67;;;;;;;;;;5088569;28;20078;-85
2021/10/12 06:46:03;;;;;;;4.18;1.38;;;;;;;;;;5090058;28;20308;-87
2021/10/12 06:48:33;;;;;;;6.65;1.13;;;;;;;;;;5089022;28;20062;-87
2021/10/12 06:51:06;;;;;;;2.88;1.00;;;;;;;;;;5087589;28;20138;-87
2021/10/12 06:53:53;;;;;;;1.92;1.08;;;;;;;;;;5093039;28;20121;-87
2021/10/12 06:56:20;;;;;;;5.68;1.17;;;;;;;;;;5072217;28;20051;-87
2021/10/12 06:58:50;;;;;;;6.63;1.40;;;;;;;;;;5079072;28;20082;-88
2021/10/12 07:01:21;;;;;;;3.15;1.20;;;;;;;;;;5055936;28;20131;-87
2021/10/12 07:03:48;;;;;;;4.78;1.38;;;;;;;;;;5073876;28;20416;-89
2021/10/12 07:06:16;;;;;;;4.22;1.35;;;;;;;;;;5081190;28;20048;-87
2021/10/12 07:08:43;;;;;;;5.00;1.45;;;;;;;;;;5081516;28;20164;-87
2021/10/12 07:11:10;;;;;;;5.35;1.48;;;;;;;;;;5087619;28;20075;-87
2021/10/12 07:13:46;;;;;;;4.32;1.15;;;;;;;;;;5085235;28;20308;-86
2021/10/12 07:16:28;;;;;;;6.28;1.70;;;;;;;;;;5081008;28;20243;-88
2021/10/12 07:18:55;;;;;;;3.38;1.13;;;;;;;;;;5071623;28;20067;-88
2021/10/12 07:21:27;;;;;;;5.82;1.23;;;;;;;;;;5074494;28;20044;-87
2021/10/12 07:24:08;;;;;;;4.13;1.30;;;;;;;;;;5058119;28;20368;-87
2021/10/12 07:30:10;;;;;;;;;;;;;;;;;;;;;
2021/10/12 07:50:15;;;;;;;6.82;1.20;;;;;;;;;;4989737;28;20445;-85
2021/10/12 07:52:59;;;;;;;4.10;0.80;;;;;;;;;;5005799;28;20040;-85
2021/10/12 07:55:37;;;;;;;10.32;1.33;;;;;;;;;;5055456;28;20081;-86
2021/10/12 07:58:06;;;;;;;3.63;0.88;;;;;;;;;;5087128;28;20514;-86
2021/10/12 08:00:33;;;;;;;4.53;0.77;;;;;;;;;;5082780;28;20098;-86
2021/10/12 08:03:01;;;;;;;5.20;0.85;;;;;;;;;;5071210;28;20083;-85
2021/10/12 08:05:28;;;;;;;11.30;1.13;;;;;;;;;;5073471;28;20044;-86
2021/10/12 08:07:56;;;;;;;3.95;0.88;;;;;;;;;;5064304;28;20048;-85
2021/10/12 08:10:36;;;;;;;6.97;1.00;;;;;;;;;;5068320;28;20104;-85
2021/10/12 08:13:29;;;;;;;7.70;1.33;;;;;;;;;;5074755;28;20047;-85
2021/10/12 08:15:56;;;;;;;7.70;1.02;;;;;;;;;;5087471;28;20094;-84
2021/10/12 08:18:24;;;;;;;4.78;1.00;;;;;;;;;;5060981;28;20052;-85
2021/10/12 08:20:57;;;;;;;13.82;1.92;;;;;;;;;;5076600;28;20112;-85
2021/10/12 08:23:24;;;;;;;6.30;1.20;;;;;;;;;;5090078;28;20248;-86
2021/10/12 08:25:51;;;;;;;6.63;1.70;;;;;;;;;;5087138;28;20036;-85
2021/10/12 08:28:18;;;;;;;10.68;1.27;;;;;;;;;;5068868;28;20071;-86
2021/10/12 08:30:45;;;;;;;9.45;1.52;;;;;;;;;;5066806;28;20048;-85
2021/10/12 08:33:12;;;;;;;8.20;1.38;;;;;;;;;;5052429;28;20045;-84
2021/10/12 08:35:47;;;;;;;5.45;1.20;;;;;;;;;;5051642;28;20041;-84
2021/10/12 08:38:57;;;;;;;12.18;1.45;;;;;;;;;;5080404;28;20047;-85
2021/10/12 08:48:26;;;;;;;5.53;1.23;;;;;;;;;;5080956;28;20219;-85
2021/10/12 08:51:07;;;;;;;18.00;3.22;;;;;;;;;;5062494;28;20153;-89
2021/10/12 08:53:34;;;;;;;11.43;1.63;;;;;;;;;;5082902;28;20094;-89
2021/10/12 08:56:04;;;;;;;9.52;2.10;;;;;;;;;;5081740;28;20048;-89
2021/10/12 08:59:18;;;;;;;11.13;2.17;;;;;;;;;;5081707;28;20146;-89
2021/10/12 09:08:56;;;;;;;9.10;1.08;;;;;;;;;;5046289;28;20099;-86
2021/10/12 09:11:35;;;;;;;8.10;1.50;;;;;;;;;;5037610;28;20055;-87
2021/10/12 09:14:21;;;;;;;10.38;1.80;;;;;;;;;;5101349;28;20048;-86
2021/10/12 09:17:02;;;;;;;9.60;1.40;;;;;;;;;;5096565;28;20102;-86
2021/10/12 09:19:33;;;;;;;12.90;1.50;;;;;;;;;;5074934;28;20162;-87
2021/10/12 09:22:03;;;;;;;11.43;1.52;;;;;;;;;;5090307;28;20109;-86
2021/10/12 09:24:35;;;;;;;6.30;1.40;;;;;;;;;;5082749;28;20142;-86
2021/10/12 09:27:04;;;;;;;6.22;0.82;;;;;;;;;;5078362;28;20133;-86
2021/10/12 09:29:37;;;;;;;11.02;1.27;;;;;;;;;;5090213;28;20040;-85
2021/10/12 09:32:06;;;;;;;8.30;1.38;;;;;;;;;;5094589;28;20129;-85
2021/10/12 09:34:38;;;;;;;6.60;1.02;;;;;;;;;;5084512;28;20040;-87
2021/10/12 09:37:13;;;;;;;9.02;1.10;;;;;;;;;;5043767;28;20190;-85
2021/10/12 09:39:50;;;;;;;6.53;1.30;;;;;;;;;;5086529;28;20051;-85
2021/10/12 09:42:18;;;;;;;7.20;1.40;;;;;;;;;;5106465;28;20040;-85
2021/10/12 09:44:55;;;;;;;6.20;0.80;;;;;;;;;;5101764;28;20054;-85
2021/10/12 09:47:39;;;;;;;3.42;0.70;;;;;;;;;;5079741;28;20079;-84
2021/10/12 09:50:13;;;;;;;4.63;0.80;;;;;;;;;;5077553;28;20055;-85
2021/10/12 09:52:45;;;;;;;4.38;0.90;;;;;;;;;;5074937;28;20055;-85
2021/10/12 09:55:38;;;;;;;5.18;0.75;;;;;;;;;;5067833;28;20232;-86
2021/10/12 09:58:05;;;;;;;6.75;0.98;;;;;;;;;;5073961;28;20056;-85
2021/10/12 10:00:33;;;;;;;6.03;1.10;;;;;;;;;;5066549;28;20048;-85
2021/10/12 10:03:02;;;;;;;11.02;1.13;;;;;;;;;;5073674;28;20052;-86
2021/10/12 10:05:44;;;;;;;4.55;1.00;;;;;;;;;;5079703;28;20036;-87
2021/10/12 10:08:20;;;;;;;2.40;0.60;;;;;;;;;;5085056;28;20099;-85
2021/10/12 10:11:17;;;;;;;7.35;0.80;;;;;;;;;;5090298;28;20075;-86
2021/10/12 10:13:46;;;;;;;4.10;0.82;;;;;;;;;;5078303;28;20044;-86
2021/10/12 10:16:14;;;;;;;3.50;0.70;;;;;;;;;;5094317;28;20058;-86
2021/10/12 10:18:45;;;;;;;2.72;0.90;;;;;;;;;;5077874;28;20071;-85
2021/10/12 10:21:13;;;;;;;8.57;0.80;;;;;;;;;;5075022;28;20266;-85
2021/10/12 10:23:49;;;;;;;3.58;0.70;;;;;;;;;;5088057;28;20320;-86
2021/10/12 10:26:27;;;;;;;;;;;;;;;;;;5072387;28;20200;-86
2021/10/12 10:28:55;;;;;;;8.43;0.68;;;;;;;;;;5074665;28;19994;-85
2021/10/12 10:31:38;;;;;;;2.97;0.55;;;;;;;;;;5088238;28;20105;-83
2021/10/12 10:34:24;;;;;;;7.30;0.82;;;;;;;;;;5072683;28;20131;-86
2021/10/12 10:37:11;;;;;;;2.75;0.50;;;;;;;;;;5070247;28;20187;-84
2021/10/12 10:39:39;;;;;;;4.72;1.10;;;;;;;;;;5068344;28;20506;-83
2021/10/12 10:42:06;;;;;;;6.30;0.88;;;;;;;;;;5088061;28;20080;-84
2021/10/12 10:44:53;;;;;;;4.65;0.75;;;;;;;;;;5089496;28;20048;-85
2021/10/12 10:47:43;;;;;;;5.97;0.75;;;;;;;;;;5071261;28;20048;-84
2021/10/12 10:50:19;;;;;;;3.25;0.95;;;;;;;;;;5039296;28;20221;-85
2021/10/12 10:52:56;;;;;;;4.80;0.73;;;;;;;;;;5069190;28;20060;-85
2021/10/12 10:55:25;;;;;;;5.15;0.82;;;;;;;;;;5071436;28;20450;-85
2021/10/12 10:58:14;;;;;;;5.47;0.82;;;;;;;;;;5085611;28;20054;-84
2021/10/12 11:00:52;;;;;;;7.38;1.08;;;;;;;;;;5074119;28;20044;-85
2021/10/12 11:03:35;;;;;;;3.53;0.82;;;;;;;;;;5062914;28;20111;-83
2021/10/12 11:06:19;;;;;;;6.57;0.80;;;;;;;;;;5082385;28;20040;-85
2021/10/12 11:09:11;;;;;;;3.50;0.60;;;;;;;;;;5083764;28;20059;-84
2021/10/12 11:12:27;;;;;;;3.67;0.57;;;;;;;;;;5052165;28;20086;-83
2021/10/12 11:15:53;;;;;;;2.85;0.70;;;;;;;;;;5054421;28;20296;-85
2021/10/12 11:18:56;;;;;;;3.45;0.77;;;;;;;;;;5066619;28;20318;-84
2021/10/12 11:21:28;;;;;;;4.55;0.80;;;;;;;;;;5050142;28;20052;-85
2021/10/12 11:23:58;;;;;;;4.30;0.90;;;;;;;;;;5049424;28;20156;-85
2021/10/12 11:26:27;;;;;;;6.13;1.20;;;;;;;;;;5066845;28;20576;-85
2021/10/12 11:28:55;;;;;;;4.57;1.10;;;;;;;;;;5069242;28;20215;-85
2021/10/12 11:31:23;;;;;;;3.05;1.00;;;;;;;;;;5073981;28;20044;-85
2021/10/12 11:34:02;;;;;;;11.52;1.45;;;;;;;;;;5087167;28;20107;-85
2021/10/12 11:36:31;;;;;;;2.55;1.10;;;;;;;;;;5079887;28;20102;-84
2021/10/12 11:39:08;;;;;;;4.97;0.75;;;;;;;;;;5069043;28;20048;-83
2021/10/12 11:41:35;;;;;;;5.03;0.80;;;;;;;;;;5087681;28;20142;-83
2021/10/12 11:44:31;;;;;;;5.70;1.05;;;;;;;;;;5073015;28;20092;-84
2021/10/12 11:47:07;;;;;;;7.47;1.63;;;;;;;;;;5058892;28;20123;-82
2021/10/12 11:49:41;;;;;;;;;;;;;;;;;;5048365;28;20424;-83
2021/10/12 11:52:12;;;;;;;10.40;1.35;;;;;;;;;;5067470;28;19921;-82
2021/10/12 11:54:40;;;;;;;8.05;1.15;;;;;;;;;;5069458;28;20155;-83
2021/10/12 11:57:15;;;;;;;1.85;0.40;;;;;;;;;;5063407;28;20048;-83
2021/10/12 11:59:48;;;;;;;1.08;0.47;;;;;;;;;;5066945;28;20288;-83
2021/10/12 12:02:15;;;;;;;7.22;0.65;;;;;;;;;;5054337;28;20055;-83
2021/10/12 12:04:50;;;;;;;15.55;1.10;;;;;;;;;;5043640;28;20235;-84
2021/10/12 12:07:20;;;;;;;6.32;0.80;;;;;;;;;;5062842;28;20433;-83
2021/10/12 12:09:47;;;;;;;8.18;0.80;;;;;;;;;;5045083;28;20048;-83
2021/10/12 12:12:18;;;;;;;10.05;1.48;;;;;;;;;;5058718;28;20060;-83
2021/10/12 12:14:55;;;;;;;7.40;1.60;;;;;;;;;;5061611;28;20064;-83
2021/10/12 12:17:25;;;;;;;7.78;0.90;;;;;;;;;;5060008;28;20298;-83
2021/10/12 12:19:59;;;;;;;4.38;0.95;;;;;;;;;;5058783;28;20452;-83
2021/10/12 12:22:35;;;;;;;2.75;0.45;;;;;;;;;;5059016;28;20056;-83
2021/10/12 12:25:32;;;;;;;2.17;0.63;;;;;;;;;;5042276;28;20380;-84
2021/10/12 12:31:44;;;;;;;3.95;0.60;;;;;;;;;;5038069;28;20393;-83
2021/10/12 12:34:35;;;;;;;3.85;0.50;;;;;;;;;;5061557;28;20063;-83
2021/10/12 12:37:26;;;;;;;4.70;0.50;;;;;;;;;;5054373;28;20048;-83
2021/10/12 12:40:30;;;;;;;2.65;0.68;;;;;;;;;;5063733;28;20044;-83
2021/10/12 12:43:14;;;;;;;2.28;0.60;;;;;;;;;;5058022;28;20044;-84
2021/10/12 12:46:07;;;;;;;2.80;0.82;;;;;;;;;;5064007;28;20037;-82
2021/10/12 12:52:57;;;;;;;3.13;1.20;;;;;;;;;;5057156;28;20062;-83
2021/10/12 12:55:35;;;;;;;4.40;0.80;;;;;;;;;;5044973;28;20188;-83
2021/10/12 12:58:20;;;;;;;5.20;0.63;;;;;;;;;;5049640;28;20041;-83
2021/10/12 13:01:06;;;;;;;0.95;0.50;;;;;;;;;;5048484;28;20052;-84
2021/10/12 13:04:02;;;;;;;;;;;;;;;;;;;;;
2021/10/12 13:06:43;;;;;;;;;;;;;;;;;;;;;
2021/10/12 13:09:16;;;;;;;2.22;0.45;;;;;;;;;;5065182;28;20273;-82
2021/10/12 13:15:08;;;;;;;2.03;0.63;;;;;;;;;;5067860;28;20066;-83
2021/10/12 13:17:37;;;;;;;2.80;0.70;;;;;;;;;;5075068;28;20452;-82
2021/10/12 13:20:19;;;;;;;8.65;2.22;;;;;;;;;;5064938;28;20115;-82
2021/10/12 13:22:52;;;;;;;6.05;1.60;;;;;;;;;;5061754;28;20048;-82
2021/10/12 13:25:46;;;;;;;;;;;;;;;;;;;;;
2021/10/12 13:28:28;;;;;;;2.67;0.77;;;;;;;;;;5054354;28;20087;-82
2021/10/12 13:31:00;;;;;;;2.65;0.60;;;;;;;;;;5039178;28;20195;-83
2021/10/12 13:33:47;;;;;;;4.22;0.73;;;;;;;;;;5064351;28;20305;-83
2021/10/12 13:36:28;;;;;;;4.15;0.75;;;;;;;;;;5065285;28;20078;-83
2021/10/12 13:39:07;;;;;;;4.47;1.10;;;;;;;;;;5048736;28;20052;-83
2021/10/12 13:41:44;;;;;;;7.25;1.48;;;;;;;;;;5031891;28;20078;-83
2021/10/12 13:44:33;;;;;;;7.15;1.40;;;;;;;;;;5044263;28;20227;-83
2021/10/12 13:47:23;;;;;;;4.03;1.90;;;;;;;;;;5059493;28;20383;-83
2021/10/12 13:50:09;;;;;;;6.10;1.60;;;;;;;;;;5066797;28;20432;-83
2021/10/12 13:52:58;;;;;;;6.72;2.08;;;;;;;;;;5049222;28;20087;-83
2021/10/12 13:55:45;;;;;;;4.88;1.25;;;;;;;;;;5063241;28;20051;-82
2021/10/12 13:58:24;;;;;;;7.60;3.33;;;;;;;;;;5047767;28;20040;-83
2021/10/12 14:01:14;;;;;;;;;;;;;;;;;;;;;
2021/10/12 14:04:10;;;;;;;6.03;0.90;;;;;;;;;;5071224;28;20068;-84
2021/10/12 14:06:44;;;;;;;2.78;0.82;;;;;;;;;;5051297;28;20441;-83
2021/10/12 14:09:34;;;;;;;2.42;0.60;;;;;;;;;;4998400;28;20500;-83
2021/10/12 14:12:06;;;;;;;3.95;0.75;;;;;;;;;;5041202;28;20166;-84
2021/10/12 14:14:53;;;;;;;4.53;0.98;;;;;;;;;;5068231;28;20322;-83
2021/10/12 14:17:33;;;;;;;3.42;1.38;;;;;;;;;;5086806;28;20055;-83
2021/10/12 14:20:12;;;;;;;2.65;0.73;;;;;;;;;;5050871;28;20231;-83
2021/10/12 14:22:59;;;;;;;5.68;1.10;;;;;;;;;;5051335;28;20106;-82
2021/10/12 14:25:28;;;;;;;4.25;0.80;;;;;;;;;;5050307;28;20053;-82
2021/10/12 14:27:58;;;;;;;3.10;0.70;;;;;;;;;;5069824;28;20302;-82
2021/10/12 14:30:24;;;;;;;1.75;0.70;;;;;;;;;;5085424;28;20234;-82
2021/10/12 14:33:20;;;;;;;2.63;0.80;;;;;;;;;;5087784;28;20150;-83
2021/10/12 14:35:55;;;;;;;2.45;0.50;;;;;;;;;;5048510;28;20057;-82
2021/10/12 14:38:36;;;;;;;1.17;0.50;;;;;;;;;;5046535;28;20166;-84
2021/10/12 14:41:09;;;;;;;1.05;0.40;;;;;;;;;;5063689;28;20464;-83
2021/10/12 14:43:39;;;;;;;1.77;0.47;;;;;;;;;;5066493;28;20495;-83
2021/10/12 14:46:08;;;;;;;3.10;0.40;;;;;;;;;;5084542;28;20051;-83
2021/10/12 14:48:37;;;;;;;1.73;0.47;;;;;;;;;;5086091;28;20056;-84
2021/10/12 14:51:04;;;;;;;0.88;0.50;;;;;;;;;;5073473;28;20066;-82
2021/10/12 14:53:34;;;;;;;5.53;0.93;;;;;;;;;;5089201;28;20074;-82
2021/10/12 14:56:04;;;;;;;5.93;2.83;;;;;;;;;;5089786;28;20210;-82
2021/10/12 14:58:38;;;;;;;1.80;0.90;;;;;;;;;;5074049;28;20472;-82
2021/10/12 15:01:16;;;;;;;4.57;1.05;;;;;;;;;;5074432;28;20048;-83
2021/10/12 15:03:47;;;;;;;4.15;1.00;;;;;;;;;;5107750;28;20251;-83
2021/10/12 15:06:29;;;;;;;3.10;0.80;;;;;;;;;;5105099;28;20039;-83
2021/10/12 15:09:03;;;;;;;1.67;0.77;;;;;;;;;;5075188;28;20210;-83
2021/10/12 15:11:30;;;;;;;2.60;0.50;;;;;;;;;;5048901;28;20235;-82
2021/10/12 15:14:05;;;;;;;1.75;0.55;;;;;;;;;;5067059;28;20065;-82
2021/10/12 15:16:37;;;;;;;6.55;0.80;;;;;;;;;;5052018;28;20052;-82
2021/10/12 15:19:30;;;;;;;2.50;1.00;;;;;;;;;;5052477;28;20053;-85
2021/10/12 15:21:59;;;;;;;2.60;0.70;;;;;;;;;;5057721;28;20045;-83
2021/10/12 15:24:41;;;;;;;3.95;0.80;;;;;;;;;;5041299;28;20052;-83
2021/10/12 15:27:13;;;;;;;6.63;1.48;;;;;;;;;;5061383;28;20198;-83
2021/10/12 15:29:50;;;;;;;5.05;1.48;;;;;;;;;;5060356;28;20110;-83
2021/10/12 15:32:20;;;;;;;4.68;0.90;;;;;;;;;;5059042;28;20151;-84
2021/10/12 15:34:57;;;;;;;;;;;;;;;;;;;;;
2021/10/12 15:37:38;;;;;;;4.20;1.00;;;;;;;;;;5068370;28;20053;-82
2021/10/12 15:40:05;;;;;;;6.00;0.90;;;;;;;;;;5048809;28;20048;-82
2021/10/12 15:42:44;;;;;;;2.90;0.60;;;;;;;;;;5048984;28;20331;-82
2021/10/12 15:45:14;;;;;;;2.63;0.57;;;;;;;;;;5078763;28;20044;-83
2021/10/12 15:47:40;;;;;;;2.80;1.20;;;;;;;;;;5075043;28;20104;-82
2021/10/12 15:50:08;;;;;;;6.45;0.98;;;;;;;;;;5094738;28;20048;-83
2021/10/12 15:52:49;;;;;;;8.43;1.20;;;;;;;;;;5068144;28;20040;-82
2021/10/12 15:58:23;;;;;;;5.30;0.90;;;;;;;;;;5059922;28;20063;-81
2021/10/12 16:00:57;;;;;;;9.32;1.00;;;;;;;;;;5082194;28;20047;-81
2021/10/12 16:03:30;;;;;;;12.18;1.08;;;;;;;;;;5061682;28;20248;-81
2021/10/12 16:06:02;;;;;;;2.67;0.73;;;;;;;;;;5079878;28;20332;-82
2021/10/12 16:08:32;;;;;;;6.32;1.23;;;;;;;;;;5060892;28;20041;-82
2021/10/12 16:11:08;;;;;;;4.00;0.75;;;;;;;;;;5085175;28;20376;-82
2021/10/12 16:13:44;;;;;;;5.28;0.77;;;;;;;;;;5068506;28;20358;-83
2021/10/12 16:22:13;;;;;;;2.60;0.80;;;;;;;;;;5088865;28;20052;-82
2021/10/12 16:24:50;;;;;;;2.92;1.00;;;;;;;;;;5097189;28;20079;-83
2021/10/12 16:27:39;;;;;;;8.65;1.13;;;;;;;;;;5070678;28;20056;-85
2021/10/12 16:30:31;;;;;;;;;;;;;;;;;;;;;
2021/10/12 16:33:05;;;;;;;5.25;0.90;;;;;;;;;;5086887;28;20481;-83
2021/10/12 16:36:07;;;;;;;4.20;0.90;;;;;;;;;;5068454;28;20039;-83
2021/10/12 16:38:55;;;;;;;4.15;0.90;;;;;;;;;;5079990;28;20139;-82